SCO17OP EGPH-EGKK
Flight info
| Callsign | SCO17OP |
|---|---|
| Flight time | 1h 8m |
| Altitude | 39000 |
| Route | GOSAM P600 FENIK L612 NAVSO DCT ADZOP DCT EGTOC DCT KEPAD L151 DISIT |
| Aircraft | B77W/H-SDE1E2E3FGHIJ2J3J4J5M1RWXY/LB1D1 |
Departure
| Time | 2026-05-07 01:21 |
|---|---|
| Airport | Edinburgh Airport (EGPH) |
Arrival
| Time | 2026-05-07 02:30 |
|---|---|
| Airport | London Gatwick Airport (EGKK) |
| Time | Latitude | Longitude | Altitude | Speed | Heading |
|---|---|---|---|---|---|
| 2026-05-07 00:40 | 55.94838 | -3.36672 | 117 ft | 0 kts | 89° |
| 2026-05-07 01:15 | 55.94838 | -3.36673 | 117 ft | 0 kts | 89° |
| 2026-05-07 01:16 | 55.94838 | -3.36699 | 112 ft | 2 kts | 89° |
| 2026-05-07 01:16 | 55.94837 | -3.36730 | 114 ft | 2 kts | 89° |
| 2026-05-07 01:16 | 55.94837 | -3.36761 | 112 ft | 2 kts | 89° |
| 2026-05-07 01:17 | 55.94837 | -3.36792 | 112 ft | 2 kts | 89° |
| 2026-05-07 01:17 | 55.94837 | -3.36822 | 112 ft | 2 kts | 89° |
| 2026-05-07 01:17 | 55.94837 | -3.36827 | 112 ft | 1 kts | 89° |
| 2026-05-07 01:17 | 55.94837 | -3.36805 | 112 ft | 5 kts | 89° |
| 2026-05-07 01:18 | 55.94837 | -3.36763 | 112 ft | 0 kts | 89° |
| 2026-05-07 01:18 | 55.94864 | -3.36703 | 114 ft | 18 kts | 44° |
| 2026-05-07 01:18 | 55.94953 | -3.36546 | 114 ft | 32 kts | 47° |
| 2026-05-07 01:19 | 55.95139 | -3.36257 | 113 ft | 36 kts | 57° |
| 2026-05-07 01:19 | 55.95240 | -3.35968 | 115 ft | 36 kts | 58° |
| 2026-05-07 01:19 | 55.95375 | -3.35569 | 115 ft | 27 kts | 57° |
| 2026-05-07 01:19 | 55.95385 | -3.35543 | 113 ft | 0 kts | 57° |
| 2026-05-07 01:20 | 55.95399 | -3.35503 | 117 ft | 14 kts | 57° |
| 2026-05-07 01:20 | 55.95515 | -3.35466 | 114 ft | 28 kts | 333° |
| 2026-05-07 01:20 | 55.95506 | -3.35744 | 116 ft | 51 kts | 241° |
| 2026-05-07 01:21 | 55.95142 | -3.36816 | 115 ft | 145 kts | 239° |
| 2026-05-07 01:21 | 55.94472 | -3.38786 | 145 ft | 219 kts | 240° |
| 2026-05-07 01:21 | 55.93770 | -3.41209 | 1029 ft | 231 kts | 246° |
| 2026-05-07 01:21 | 55.93147 | -3.44250 | 1255 ft | 291 kts | 251° |
| 2026-05-07 01:22 | 55.92647 | -3.47487 | 2235 ft | 246 kts | 253° |
| 2026-05-07 01:22 | 55.92301 | -3.50275 | 2984 ft | 216 kts | 256° |
| 2026-05-07 01:22 | 55.92041 | -3.52866 | 3325 ft | 212 kts | 258° |
| 2026-05-07 01:22 | 55.91796 | -3.55480 | 3180 ft | 217 kts | 258° |
| 2026-05-07 01:23 | 55.91548 | -3.58131 | 2933 ft | 211 kts | 257° |
| 2026-05-07 01:23 | 55.91316 | -3.60685 | 2817 ft | 204 kts | 258° |
| 2026-05-07 01:23 | 55.91104 | -3.63206 | 2788 ft | 205 kts | 257° |
| 2026-05-07 01:23 | 55.90842 | -3.65862 | 3231 ft | 236 kts | 256° |
| 2026-05-07 01:24 | 55.90428 | -3.68950 | 3761 ft | 277 kts | 247° |
| 2026-05-07 01:24 | 55.89416 | -3.72116 | 4411 ft | 312 kts | 234° |
| 2026-05-07 01:24 | 55.88094 | -3.75388 | 5044 ft | 343 kts | 234° |
| 2026-05-07 01:24 | 55.86798 | -3.79173 | 5786 ft | 366 kts | 243° |
| 2026-05-07 01:25 | 55.85864 | -3.83385 | 6869 ft | 353 kts | 254° |
| 2026-05-07 01:25 | 55.85406 | -3.87378 | 7685 ft | 307 kts | 259° |
| 2026-05-07 01:25 | 55.85024 | -3.90924 | 8112 ft | 284 kts | 254° |
| 2026-05-07 01:25 | 55.84369 | -3.94269 | 8697 ft | 289 kts | 246° |
| 2026-05-07 01:26 | 55.83556 | -3.97555 | 9272 ft | 293 kts | 246° |
| 2026-05-07 01:26 | 55.82753 | -4.00911 | 9850 ft | 296 kts | 248° |
| 2026-05-07 01:26 | 55.82009 | -4.04343 | 10373 ft | 298 kts | 250° |
| 2026-05-07 01:26 | 55.81309 | -4.07826 | 10898 ft | 300 kts | 251° |
| 2026-05-07 01:27 | 55.80621 | -4.11336 | 11423 ft | 301 kts | 251° |
| 2026-05-07 01:27 | 55.79930 | -4.14860 | 11955 ft | 301 kts | 251° |
| 2026-05-07 01:27 | 55.79219 | -4.18365 | 12505 ft | 305 kts | 248° |
| 2026-05-07 01:27 | 55.78243 | -4.21712 | 13050 ft | 306 kts | 236° |
| 2026-05-07 01:28 | 55.76712 | -4.24342 | 13567 ft | 312 kts | 211° |
| 2026-05-07 01:28 | 55.74771 | -4.26009 | 14136 ft | 308 kts | 208° |
| 2026-05-07 01:28 | 55.72799 | -4.27519 | 14623 ft | 309 kts | 199° |
| 2026-05-07 01:28 | 55.70649 | -4.27868 | 15085 ft | 318 kts | 171° |
| 2026-05-07 01:29 | 55.68613 | -4.26433 | 15618 ft | 321 kts | 152° |
| 2026-05-07 01:29 | 55.66729 | -4.24380 | 16162 ft | 315 kts | 152° |
| 2026-05-07 01:29 | 55.64856 | -4.22438 | 16618 ft | 310 kts | 155° |
| 2026-05-07 01:29 | 55.62936 | -4.20617 | 16968 ft | 309 kts | 156° |
| 2026-05-07 01:30 | 55.61065 | -4.18874 | 17316 ft | 307 kts | 156° |
| 2026-05-07 01:30 | 55.59124 | -4.17045 | 17634 ft | 318 kts | 155° |
| 2026-05-07 01:30 | 55.57172 | -4.15177 | 17947 ft | 330 kts | 155° |
| 2026-05-07 01:30 | 55.55123 | -4.13189 | 18265 ft | 343 kts | 155° |
| 2026-05-07 01:31 | 55.52998 | -4.11116 | 18539 ft | 352 kts | 154° |
| 2026-05-07 01:31 | 55.50836 | -4.09005 | 18789 ft | 358 kts | 154° |
| 2026-05-07 01:31 | 55.48637 | -4.06862 | 19045 ft | 364 kts | 154° |
| 2026-05-07 01:31 | 55.46404 | -4.04691 | 19292 ft | 369 kts | 154° |
| 2026-05-07 01:32 | 55.44141 | -4.02493 | 19560 ft | 374 kts | 154° |
| 2026-05-07 01:32 | 55.41844 | -4.00264 | 19819 ft | 379 kts | 154° |
| 2026-05-07 01:32 | 55.39520 | -3.98011 | 20084 ft | 384 kts | 154° |
| 2026-05-07 01:32 | 55.37162 | -3.95727 | 20341 ft | 389 kts | 154° |
| 2026-05-07 01:33 | 55.34781 | -3.93425 | 20606 ft | 393 kts | 154° |
| 2026-05-07 01:33 | 55.32378 | -3.91104 | 20875 ft | 396 kts | 154° |
| 2026-05-07 01:33 | 55.29936 | -3.88749 | 20973 ft | 405 kts | 154° |
| 2026-05-07 01:33 | 55.27439 | -3.86345 | 21031 ft | 414 kts | 154° |
| 2026-05-07 01:34 | 55.24888 | -3.83891 | 21030 ft | 423 kts | 154° |
| 2026-05-07 01:34 | 55.22277 | -3.81398 | 21044 ft | 431 kts | 155° |
| 2026-05-07 01:34 | 55.19539 | -3.79170 | 21026 ft | 437 kts | 162° |
| 2026-05-07 01:34 | 55.16647 | -3.77482 | 21043 ft | 441 kts | 167° |
| 2026-05-07 01:35 | 55.13670 | -3.76051 | 21036 ft | 447 kts | 168° |
| 2026-05-07 01:35 | 55.10623 | -3.74660 | 21050 ft | 456 kts | 168° |
| 2026-05-07 01:35 | 55.07551 | -3.73212 | 21027 ft | 458 kts | 167° |
| 2026-05-07 01:35 | 55.04492 | -3.71687 | 21030 ft | 457 kts | 166° |
| 2026-05-07 01:36 | 55.01446 | -3.70091 | 21021 ft | 457 kts | 166° |
| 2026-05-07 01:36 | 54.98409 | -3.68443 | 21023 ft | 457 kts | 165° |
| 2026-05-07 01:36 | 54.95378 | -3.66769 | 21023 ft | 457 kts | 165° |
| 2026-05-07 01:36 | 54.92392 | -3.65112 | 21023 ft | 456 kts | 165° |
| 2026-05-07 01:37 | 54.89326 | -3.63417 | 21021 ft | 457 kts | 165° |
| 2026-05-07 01:37 | 54.86297 | -3.61755 | 21014 ft | 457 kts | 165° |
| 2026-05-07 01:37 | 54.83301 | -3.60124 | 21019 ft | 456 kts | 165° |
| 2026-05-07 01:37 | 54.80274 | -3.58487 | 21019 ft | 456 kts | 165° |
| 2026-05-07 01:38 | 54.77203 | -3.56834 | 21025 ft | 456 kts | 165° |
| 2026-05-07 01:38 | 54.74165 | -3.55204 | 21023 ft | 457 kts | 165° |
| 2026-05-07 01:38 | 54.71131 | -3.53578 | 21018 ft | 457 kts | 165° |
| 2026-05-07 01:38 | 54.68096 | -3.51953 | 21024 ft | 457 kts | 165° |
| 2026-05-07 01:39 | 54.65098 | -3.50349 | 21027 ft | 457 kts | 165° |
| 2026-05-07 01:39 | 54.62060 | -3.48725 | 21029 ft | 457 kts | 165° |
| 2026-05-07 01:39 | 54.59018 | -3.47101 | 21021 ft | 457 kts | 165° |
| 2026-05-07 01:39 | 54.55983 | -3.45483 | 21027 ft | 457 kts | 165° |
| 2026-05-07 01:40 | 54.52941 | -3.43864 | 21029 ft | 457 kts | 165° |
| 2026-05-07 01:40 | 54.49901 | -3.42247 | 21028 ft | 457 kts | 165° |
| 2026-05-07 01:40 | 54.46865 | -3.40637 | 21035 ft | 457 kts | 165° |
| 2026-05-07 01:40 | 54.43822 | -3.39025 | 21030 ft | 458 kts | 165° |
| 2026-05-07 01:41 | 54.40779 | -3.37416 | 21027 ft | 457 kts | 165° |
| 2026-05-07 01:41 | 54.37734 | -3.35808 | 21038 ft | 457 kts | 165° |
| 2026-05-07 01:41 | 54.34693 | -3.34205 | 21033 ft | 457 kts | 165° |
| 2026-05-07 01:41 | 54.31656 | -3.32606 | 21041 ft | 458 kts | 165° |
| 2026-05-07 01:42 | 54.28615 | -3.31007 | 21041 ft | 458 kts | 165° |
| 2026-05-07 01:42 | 54.25565 | -3.29404 | 21026 ft | 458 kts | 165° |
| 2026-05-07 01:42 | 54.22539 | -3.27817 | 21037 ft | 457 kts | 165° |
| 2026-05-07 01:42 | 54.19486 | -3.26220 | 21038 ft | 457 kts | 165° |
| 2026-05-07 01:43 | 54.16454 | -3.24763 | 21017 ft | 450 kts | 168° |
| 2026-05-07 01:43 | 54.13361 | -3.23803 | 21024 ft | 454 kts | 179° |
| 2026-05-07 01:43 | 54.10210 | -3.24094 | 21063 ft | 452 kts | 191° |
| 2026-05-07 01:43 | 54.07131 | -3.25001 | 21038 ft | 448 kts | 193° |
| 2026-05-07 01:44 | 54.04067 | -3.25945 | 21032 ft | 448 kts | 190° |
| 2026-05-07 01:44 | 54.00942 | -3.26083 | 21029 ft | 456 kts | 173° |
| 2026-05-07 01:44 | 53.97907 | -3.24376 | 21032 ft | 468 kts | 152° |
| 2026-05-07 01:44 | 53.95389 | -3.20940 | 21048 ft | 465 kts | 132° |
| 2026-05-07 01:45 | 53.93384 | -3.16677 | 21050 ft | 460 kts | 128° |
| 2026-05-07 01:45 | 53.91406 | -3.12401 | 21040 ft | 462 kts | 132° |
| 2026-05-07 01:45 | 53.88939 | -3.08917 | 21043 ft | 467 kts | 153° |
| 2026-05-07 01:45 | 53.85902 | -3.07164 | 21038 ft | 459 kts | 174° |
| 2026-05-07 01:46 | 53.82753 | -3.07050 | 21050 ft | 448 kts | 185° |
| 2026-05-07 01:46 | 53.79646 | -3.07441 | 21048 ft | 449 kts | 186° |
| 2026-05-07 01:46 | 53.76513 | -3.07559 | 21014 ft | 455 kts | 175° |
| 2026-05-07 01:46 | 53.73426 | -3.06128 | 21062 ft | 465 kts | 157° |
| 2026-05-07 01:47 | 53.70592 | -3.03701 | 21038 ft | 449 kts | 152° |
| 2026-05-07 01:47 | 53.67886 | -3.01197 | 21027 ft | 440 kts | 153° |
| 2026-05-07 01:47 | 53.65124 | -2.99023 | 21038 ft | 438 kts | 160° |
| 2026-05-07 01:47 | 53.62254 | -2.97341 | 21052 ft | 437 kts | 164° |
| 2026-05-07 01:48 | 53.59365 | -2.95894 | 21067 ft | 443 kts | 165° |
| 2026-05-07 01:48 | 53.56397 | -2.94415 | 21054 ft | 443 kts | 164° |
| 2026-05-07 01:48 | 53.53476 | -2.92858 | 21040 ft | 439 kts | 163° |
| 2026-05-07 01:48 | 53.50599 | -2.91203 | 21034 ft | 436 kts | 161° |
| 2026-05-07 01:49 | 53.47750 | -2.89463 | 21046 ft | 436 kts | 160° |
| 2026-05-07 01:49 | 53.44908 | -2.87665 | 21051 ft | 436 kts | 160° |
| 2026-05-07 01:49 | 53.42072 | -2.85841 | 21047 ft | 437 kts | 160° |
| 2026-05-07 01:49 | 53.39239 | -2.84016 | 21049 ft | 437 kts | 160° |
| 2026-05-07 01:50 | 53.36391 | -2.82192 | 21049 ft | 438 kts | 160° |
| 2026-05-07 01:50 | 53.33547 | -2.80387 | 21049 ft | 438 kts | 160° |
| 2026-05-07 01:50 | 53.30696 | -2.78592 | 21050 ft | 438 kts | 160° |
| 2026-05-07 01:50 | 53.27840 | -2.76805 | 21048 ft | 438 kts | 160° |
| 2026-05-07 01:51 | 53.24985 | -2.75026 | 21050 ft | 438 kts | 160° |
| 2026-05-07 01:51 | 53.22128 | -2.73250 | 21046 ft | 438 kts | 160° |
| 2026-05-07 01:51 | 53.19267 | -2.71474 | 21048 ft | 438 kts | 160° |
| 2026-05-07 01:51 | 53.16415 | -2.69703 | 21051 ft | 438 kts | 160° |
| 2026-05-07 01:52 | 53.13558 | -2.67932 | 21052 ft | 438 kts | 160° |
| 2026-05-07 01:52 | 53.10706 | -2.66165 | 21051 ft | 438 kts | 160° |
| 2026-05-07 01:52 | 53.07852 | -2.64398 | 21054 ft | 437 kts | 160° |
| 2026-05-07 01:52 | 53.05001 | -2.62637 | 21054 ft | 437 kts | 160° |
| 2026-05-07 01:53 | 53.02149 | -2.60877 | 21051 ft | 437 kts | 160° |
| 2026-05-07 01:53 | 52.99306 | -2.59125 | 21052 ft | 436 kts | 160° |
| 2026-05-07 01:53 | 52.96495 | -2.57395 | 21051 ft | 436 kts | 160° |
| 2026-05-07 01:53 | 52.93654 | -2.55649 | 21049 ft | 436 kts | 160° |
| 2026-05-07 01:54 | 52.90813 | -2.53905 | 21049 ft | 435 kts | 160° |
| 2026-05-07 01:54 | 52.87973 | -2.52164 | 21050 ft | 435 kts | 160° |
| 2026-05-07 01:54 | 52.85133 | -2.50426 | 21049 ft | 435 kts | 160° |
| 2026-05-07 01:54 | 52.82295 | -2.48692 | 21048 ft | 435 kts | 160° |
| 2026-05-07 01:55 | 52.79512 | -2.46862 | 21033 ft | 428 kts | 156° |
| 2026-05-07 01:55 | 52.76848 | -2.44592 | 21039 ft | 435 kts | 146° |
| 2026-05-07 01:55 | 52.74540 | -2.41319 | 21065 ft | 437 kts | 134° |
| 2026-05-07 01:55 | 52.72471 | -2.37709 | 20810 ft | 426 kts | 133° |
| 2026-05-07 01:56 | 52.70413 | -2.34300 | 20244 ft | 414 kts | 141° |
| 2026-05-07 01:56 | 52.67923 | -2.32036 | 19706 ft | 407 kts | 163° |
| 2026-05-07 01:56 | 52.65242 | -2.30818 | 19248 ft | 394 kts | 167° |
| 2026-05-07 01:56 | 52.62633 | -2.29641 | 18750 ft | 384 kts | 161° |
| 2026-05-07 01:57 | 52.60358 | -2.27427 | 18190 ft | 383 kts | 137° |
| 2026-05-07 01:57 | 52.58598 | -2.24226 | 17716 ft | 372 kts | 131° |
| 2026-05-07 01:57 | 52.56897 | -2.21091 | 17144 ft | 364 kts | 138° |
| 2026-05-07 01:57 | 52.54846 | -2.18714 | 16604 ft | 358 kts | 153° |
| 2026-05-07 01:58 | 52.52642 | -2.16896 | 16101 ft | 351 kts | 155° |
| 2026-05-07 01:58 | 52.50516 | -2.15011 | 15565 ft | 346 kts | 149° |
| 2026-05-07 01:58 | 52.48509 | -2.12720 | 15210 ft | 361 kts | 144° |
| 2026-05-07 01:58 | 52.46463 | -2.10184 | 15102 ft | 374 kts | 144° |
| 2026-05-07 01:59 | 52.44352 | -2.07703 | 15072 ft | 373 kts | 146° |
| 2026-05-07 01:59 | 52.42202 | -2.05318 | 15072 ft | 374 kts | 147° |
| 2026-05-07 01:59 | 52.40024 | -2.02974 | 15067 ft | 375 kts | 148° |
| 2026-05-07 01:59 | 52.37841 | -2.00636 | 15071 ft | 375 kts | 148° |
| 2026-05-07 02:00 | 52.35659 | -1.98291 | 15072 ft | 375 kts | 147° |
| 2026-05-07 02:00 | 52.33484 | -1.95940 | 15071 ft | 375 kts | 147° |
| 2026-05-07 02:00 | 52.31336 | -1.93611 | 15062 ft | 375 kts | 147° |
| 2026-05-07 02:00 | 52.29162 | -1.91255 | 15065 ft | 375 kts | 147° |
| 2026-05-07 02:01 | 52.26962 | -1.88878 | 15064 ft | 375 kts | 147° |
| 2026-05-07 02:01 | 52.24788 | -1.86539 | 15060 ft | 375 kts | 148° |
| 2026-05-07 02:01 | 52.22605 | -1.84204 | 15057 ft | 375 kts | 148° |
| 2026-05-07 02:01 | 52.20452 | -1.81909 | 15048 ft | 375 kts | 148° |
| 2026-05-07 02:02 | 52.18272 | -1.79588 | 15042 ft | 375 kts | 148° |
| 2026-05-07 02:02 | 52.16087 | -1.77260 | 15047 ft | 374 kts | 148° |
| 2026-05-07 02:02 | 52.13909 | -1.74941 | 15050 ft | 374 kts | 148° |
| 2026-05-07 02:02 | 52.11728 | -1.72621 | 15043 ft | 375 kts | 148° |
| 2026-05-07 02:03 | 52.09546 | -1.70303 | 15042 ft | 375 kts | 148° |
| 2026-05-07 02:03 | 52.07365 | -1.67988 | 15045 ft | 374 kts | 148° |
| 2026-05-07 02:03 | 52.05184 | -1.65674 | 15046 ft | 374 kts | 148° |
| 2026-05-07 02:03 | 52.03004 | -1.63364 | 15035 ft | 375 kts | 148° |
| 2026-05-07 02:04 | 52.00819 | -1.61050 | 15044 ft | 374 kts | 148° |
| 2026-05-07 02:04 | 51.98640 | -1.58744 | 15039 ft | 374 kts | 148° |
| 2026-05-07 02:04 | 51.96458 | -1.56438 | 15035 ft | 375 kts | 148° |
| 2026-05-07 02:04 | 51.94275 | -1.54134 | 15062 ft | 374 kts | 148° |
| 2026-05-07 02:05 | 51.92091 | -1.51831 | 15039 ft | 374 kts | 148° |
| 2026-05-07 02:05 | 51.89908 | -1.49532 | 15036 ft | 374 kts | 148° |
| 2026-05-07 02:05 | 51.87727 | -1.47238 | 15058 ft | 374 kts | 148° |
| 2026-05-07 02:05 | 51.85544 | -1.44945 | 15032 ft | 374 kts | 148° |
| 2026-05-07 02:06 | 51.83363 | -1.42655 | 15041 ft | 374 kts | 148° |
| 2026-05-07 02:06 | 51.81186 | -1.40373 | 15054 ft | 373 kts | 148° |
| 2026-05-07 02:06 | 51.79003 | -1.38087 | 15020 ft | 374 kts | 148° |
| 2026-05-07 02:06 | 51.76806 | -1.35791 | 14704 ft | 379 kts | 148° |
| 2026-05-07 02:07 | 51.74593 | -1.33482 | 14306 ft | 378 kts | 147° |
| 2026-05-07 02:07 | 51.70228 | -1.28933 | 13548 ft | 370 kts | 147° |
| 2026-05-07 02:07 | 51.68080 | -1.26697 | 13134 ft | 366 kts | 147° |
| 2026-05-07 02:08 | 51.66668 | -1.25227 | 12880 ft | 364 kts | 147° |
| 2026-05-07 02:08 | 51.64552 | -1.23028 | 12481 ft | 360 kts | 147° |
| 2026-05-07 02:08 | 51.62454 | -1.20848 | 12087 ft | 357 kts | 147° |
| 2026-05-07 02:08 | 51.60371 | -1.18688 | 11689 ft | 355 kts | 147° |
| 2026-05-07 02:09 | 51.58306 | -1.16547 | 11316 ft | 352 kts | 147° |
| 2026-05-07 02:09 | 51.56255 | -1.14424 | 10946 ft | 350 kts | 147° |
| 2026-05-07 02:09 | 51.54215 | -1.12315 | 10576 ft | 347 kts | 147° |
| 2026-05-07 02:09 | 51.52189 | -1.10223 | 10204 ft | 346 kts | 147° |
| 2026-05-07 02:10 | 51.50180 | -1.08150 | 10042 ft | 339 kts | 147° |
| 2026-05-07 02:10 | 51.48197 | -1.06106 | 10062 ft | 342 kts | 147° |
| 2026-05-07 02:10 | 51.46175 | -1.04024 | 10059 ft | 349 kts | 147° |
| 2026-05-07 02:10 | 51.44120 | -1.01911 | 10050 ft | 350 kts | 147° |
| 2026-05-07 02:11 | 51.42100 | -0.99835 | 10037 ft | 339 kts | 147° |
| 2026-05-07 02:11 | 51.40149 | -0.97832 | 10022 ft | 328 kts | 147° |
| 2026-05-07 02:11 | 51.38238 | -0.95873 | 10044 ft | 325 kts | 147° |
| 2026-05-07 02:11 | 51.36334 | -0.93922 | 10040 ft | 325 kts | 147° |
| 2026-05-07 02:12 | 51.34424 | -0.91968 | 10039 ft | 326 kts | 147° |
| 2026-05-07 02:12 | 51.32516 | -0.90018 | 10047 ft | 326 kts | 147° |
| 2026-05-07 02:12 | 51.30606 | -0.88068 | 10050 ft | 326 kts | 147° |
| 2026-05-07 02:12 | 51.28697 | -0.86120 | 10049 ft | 326 kts | 147° |
| 2026-05-07 02:13 | 51.26806 | -0.84194 | 10035 ft | 318 kts | 147° |
| 2026-05-07 02:13 | 51.24972 | -0.82326 | 10030 ft | 310 kts | 147° |
| 2026-05-07 02:13 | 51.23159 | -0.80475 | 10035 ft | 307 kts | 146° |
| 2026-05-07 02:13 | 51.21550 | -0.78296 | 10041 ft | 306 kts | 128° |
| 2026-05-07 02:14 | 51.20389 | -0.75466 | 10064 ft | 305 kts | 119° |
| 2026-05-07 02:14 | 51.19334 | -0.72502 | 9960 ft | 306 kts | 120° |
| 2026-05-07 02:14 | 51.18211 | -0.69650 | 9489 ft | 302 kts | 125° |
| 2026-05-07 02:14 | 51.16962 | -0.66989 | 8950 ft | 299 kts | 128° |
| 2026-05-07 02:15 | 51.15672 | -0.64419 | 8431 ft | 295 kts | 129° |
| 2026-05-07 02:15 | 51.14392 | -0.61887 | 7913 ft | 292 kts | 129° |
| 2026-05-07 02:15 | 51.13130 | -0.59368 | 7393 ft | 289 kts | 128° |
| 2026-05-07 02:15 | 51.11894 | -0.56876 | 6915 ft | 286 kts | 128° |
| 2026-05-07 02:16 | 51.10675 | -0.54397 | 6424 ft | 283 kts | 128° |
| 2026-05-07 02:16 | 51.09472 | -0.51940 | 5883 ft | 280 kts | 128° |
| 2026-05-07 02:16 | 51.08282 | -0.49503 | 5366 ft | 278 kts | 128° |
| 2026-05-07 02:16 | 51.07117 | -0.47116 | 5084 ft | 267 kts | 128° |
| 2026-05-07 02:17 | 51.06015 | -0.44858 | 5036 ft | 249 kts | 128° |
| 2026-05-07 02:17 | 51.04985 | -0.42753 | 5021 ft | 237 kts | 128° |
| 2026-05-07 02:17 | 51.03974 | -0.40686 | 5042 ft | 238 kts | 128° |
| 2026-05-07 02:17 | 51.02956 | -0.38604 | 5033 ft | 237 kts | 128° |
| 2026-05-07 02:18 | 51.01950 | -0.36542 | 5031 ft | 235 kts | 128° |
| 2026-05-07 02:18 | 51.00952 | -0.34501 | 5035 ft | 233 kts | 128° |
| 2026-05-07 02:18 | 50.99961 | -0.32475 | 5039 ft | 232 kts | 128° |
| 2026-05-07 02:18 | 50.98969 | -0.30449 | 5051 ft | 233 kts | 128° |
| 2026-05-07 02:19 | 50.97974 | -0.28418 | 5051 ft | 234 kts | 128° |
| 2026-05-07 02:19 | 50.96975 | -0.26381 | 5043 ft | 233 kts | 128° |
| 2026-05-07 02:19 | 50.95980 | -0.24352 | 5041 ft | 233 kts | 128° |
| 2026-05-07 02:19 | 50.94983 | -0.22322 | 5039 ft | 233 kts | 128° |
| 2026-05-07 02:20 | 50.93986 | -0.20293 | 5039 ft | 233 kts | 128° |
| 2026-05-07 02:20 | 50.92990 | -0.18269 | 4987 ft | 234 kts | 128° |
| 2026-05-07 02:20 | 50.91985 | -0.16229 | 4675 ft | 236 kts | 128° |
| 2026-05-07 02:20 | 50.90983 | -0.14197 | 4239 ft | 231 kts | 128° |
| 2026-05-07 02:21 | 50.90022 | -0.12240 | 3829 ft | 225 kts | 126° |
| 2026-05-07 02:21 | 50.89299 | -0.10097 | 3374 ft | 218 kts | 100° |
| 2026-05-07 02:21 | 50.89431 | -0.07785 | 2661 ft | 217 kts | 59° |
| 2026-05-07 02:21 | 50.90515 | -0.06066 | 1781 ft | 228 kts | 31° |
| 2026-05-07 02:22 | 50.91766 | -0.04704 | 1819 ft | 209 kts | 45° |
| 2026-05-07 02:22 | 50.92718 | -0.02927 | 1950 ft | 220 kts | 51° |
| 2026-05-07 02:22 | 50.93713 | -0.01051 | 2011 ft | 225 kts | 47° |
| 2026-05-07 02:22 | 50.94825 | 0.00707 | 2008 ft | 226 kts | 43° |
| 2026-05-07 02:23 | 50.95962 | 0.02418 | 2001 ft | 226 kts | 44° |
| 2026-05-07 02:23 | 50.97087 | 0.04160 | 2001 ft | 226 kts | 45° |
| 2026-05-07 02:23 | 50.98198 | 0.05922 | 1987 ft | 225 kts | 45° |
| 2026-05-07 02:23 | 50.99291 | 0.07678 | 1979 ft | 223 kts | 46° |
| 2026-05-07 02:24 | 51.00376 | 0.09427 | 1927 ft | 221 kts | 45° |
| 2026-05-07 02:24 | 51.01609 | 0.10790 | 1874 ft | 217 kts | 12° |
| 2026-05-07 02:24 | 51.03108 | 0.10584 | 1875 ft | 223 kts | 332° |
| 2026-05-07 02:24 | 51.04407 | 0.09246 | 1917 ft | 221 kts | 328° |
| 2026-05-07 02:25 | 51.05762 | 0.08204 | 1948 ft | 211 kts | 341° |
| 2026-05-07 02:25 | 51.07124 | 0.07469 | 1892 ft | 204 kts | 340° |
| 2026-05-07 02:25 | 51.08428 | 0.06603 | 1903 ft | 201 kts | 335° |
| 2026-05-07 02:25 | 51.09660 | 0.05625 | 1867 ft | 196 kts | 334° |
| 2026-05-07 02:26 | 51.10875 | 0.04651 | 1812 ft | 194 kts | 334° |
| 2026-05-07 02:26 | 51.12086 | 0.03697 | 1810 ft | 194 kts | 334° |
| 2026-05-07 02:26 | 51.13303 | 0.02747 | 1821 ft | 195 kts | 335° |
| 2026-05-07 02:26 | 51.14526 | 0.01799 | 1816 ft | 196 kts | 335° |
| 2026-05-07 02:27 | 51.15754 | 0.00850 | 1806 ft | 196 kts | 334° |
| 2026-05-07 02:27 | 51.16816 | -0.00436 | 1783 ft | 192 kts | 300° |
| 2026-05-07 02:27 | 51.17065 | -0.02508 | 1820 ft | 198 kts | 260° |
| 2026-05-07 02:27 | 51.16749 | -0.04639 | 1864 ft | 196 kts | 257° |
| 2026-05-07 02:28 | 51.16502 | -0.06716 | 1646 ft | 190 kts | 259° |
| 2026-05-07 02:28 | 51.16243 | -0.08709 | 1406 ft | 176 kts | 257° |
| 2026-05-07 02:28 | 51.15989 | -0.10530 | 1131 ft | 163 kts | 257° |
| 2026-05-07 02:28 | 51.15754 | -0.12225 | 901 ft | 152 kts | 258° |
| 2026-05-07 02:29 | 51.15528 | -0.13863 | 704 ft | 152 kts | 258° |
| 2026-05-07 02:29 | 51.15304 | -0.15484 | 487 ft | 148 kts | 258° |
| 2026-05-07 02:29 | 51.15084 | -0.17075 | 271 ft | 147 kts | 257° |
| 2026-05-07 02:29 | 51.14882 | -0.18519 | 219 ft | 93 kts | 253° |
| 2026-05-07 02:30 | 51.14837 | -0.18823 | 213 ft | 6 kts | 259° |
| 2026-05-07 02:30 | 51.14814 | -0.19003 | 216 ft | 23 kts | 261° |
| 2026-05-07 02:30 | 51.14817 | -0.19260 | 216 ft | 29 kts | 283° |
| 2026-05-07 02:30 | 51.14884 | -0.19476 | 216 ft | 21 kts | 327° |
| 2026-05-07 02:31 | 51.14940 | -0.19418 | 218 ft | 16 kts | 75° |
| 2026-05-07 02:31 | 51.15020 | -0.19256 | 216 ft | 25 kts | 42° |
| 2026-05-07 02:31 | 51.15099 | -0.18906 | 214 ft | 44 kts | 77° |
| 2026-05-07 02:31 | 51.15179 | -0.18343 | 212 ft | 53 kts | 77° |
| 2026-05-07 02:32 | 51.15237 | -0.17937 | 215 ft | 18 kts | 77° |
| 2026-05-07 02:32 | 51.15238 | -0.17926 | 215 ft | 0 kts | 77° |
| 2026-05-07 02:32 | 51.15239 | -0.17924 | 215 ft | 3 kts | 77° |
| 2026-05-07 02:33 | 51.15264 | -0.17746 | 216 ft | 29 kts | 77° |
| 2026-05-07 02:33 | 51.15339 | -0.17353 | 219 ft | 37 kts | 60° |
| 2026-05-07 02:33 | 51.15412 | -0.17087 | 221 ft | 18 kts | 42° |
| 2026-05-07 02:33 | 51.15454 | -0.17077 | 212 ft | 0 kts | 350° |